Observation data for Abernathy on 08/14/2019      Previous  Date  Next       Current Mesonet Observations  Soil Data  Daily Summary Page  Observations in Plain Language
KARS 140500Z 08008KT 25/18 A3014 RMK A01 T02510175  RH  066%=      5-min Rain = 0
KARS 140505Z 09008KT 25/18 A3015 RMK A01 T02520176  RH  066%=      5-min Rain = 0
KARS 140510Z 08007KT 25/18 A3015 RMK A01 T02500177  RH  067%=      5-min Rain = 0
KARS 140515Z 09007KT 25/18 A3014 RMK A01 T02480177  RH  068%=      5-min Rain = 0
KARS 140520Z 08007KT 25/18 A3014 RMK A01 T02470176  RH  068%=      5-min Rain = 0
KARS 140525Z 09009KT 25/18 A3015 RMK A01 T02470177  RH  068%=      5-min Rain = 0
KARS 140530Z 09008KT 25/18 A3014 RMK A01 T02460177  RH  069%=      5-min Rain = 0
KARS 140535Z 09009KT 25/18 A3014 RMK A01 T02460176  RH  069%=      5-min Rain = 0
KARS 140540Z 09009KT 25/18 A3014 RMK A01 T02450176  RH  069%=      5-min Rain = 0
KARS 140545Z 08009KT 25/18 A3014 RMK A01 T02450176  RH  069%=      5-min Rain = 0
KARS 140550Z 08008KT 24/18 A3015 RMK A01 T02430176  RH  070%=      5-min Rain = 0
KARS 140555Z 08008KT 24/18 A3015 RMK A01 T02410176  RH  071%=      5-min Rain = 0
KARS 140600Z 08009KT 24/18 A3015 RMK A01 T02400176  RH  071%=      5-min Rain = 0
KARS 140605Z 08010KT 24/18 A3015 RMK A01 T02400176  RH  071%=      5-min Rain = 0
KARS 140610Z 08009KT 24/18 A3015 RMK A01 T02410176  RH  071%=      5-min Rain = 0
KARS 140615Z 09008KT 24/18 A3015 RMK A01 T02400177  RH  071%=      5-min Rain = 0
KARS 140620Z 09009KT 24/18 A3015 RMK A01 T02390176  RH  072%=      5-min Rain = 0
KARS 140625Z 08009KT 24/18 A3016 RMK A01 T02400177  RH  071%=      5-min Rain = 0
KARS 140630Z 08010KT 24/18 A3016 RMK A01 T02400177  RH  071%=      5-min Rain = 0
KARS 140635Z 09009KT 24/18 A3015 RMK A01 T02390177  RH  072%=      5-min Rain = 0
KARS 140640Z 09011KT 24/18 A3015 RMK A01 T02410176  RH  071%=      5-min Rain = 0
KARS 140645Z 08011KT 24/18 A3016 RMK A01 T02400176  RH  071%=      5-min Rain = 0
KARS 140650Z 07010KT 24/18 A3017 RMK A01 T02400176  RH  071%=      5-min Rain = 0
KARS 140655Z 07011KT 24/18 A3017 RMK A01 T02390175  RH  071%=      5-min Rain = 0
KARS 140700Z 06011KT 24/18 A3017 RMK A01 T02390175  RH  071%=      5-min Rain = 0
KARS 140705Z 06011KT 24/18 A3017 RMK A01 T02390175  RH  071%=      5-min Rain = 0
KARS 140710Z 06010KT 24/18 A3017 RMK A01 T02380175  RH  072%=      5-min Rain = 0
KARS 140715Z 06008KT 24/18 A3016 RMK A01 T02360175  RH  072%=      5-min Rain = 0
KARS 140720Z 06008KT 23/18 A3016 RMK A01 T02330175  RH  074%=      5-min Rain = 0
KARS 140725Z 06009KT 23/18 A3016 RMK A01 T02330176  RH  074%=      5-min Rain = 0
KARS 140730Z 06010KT 23/18 A3017 RMK A01 T02320177  RH  075%=      5-min Rain = 0
KARS 140735Z 06010KT 23/18 A3016 RMK A01 T02330177  RH  074%=      5-min Rain = 0
KARS 140740Z 06011KT 23/18 A3016 RMK A01 T02340177  RH  074%=      5-min Rain = 0
KARS 140745Z 06010KT 23/18 A3016 RMK A01 T02340176  RH  074%=      5-min Rain = 0
KARS 140750Z 07011KT 23/18 A3016 RMK A01 T02330176  RH  074%=      5-min Rain = 0
KARS 140755Z 07010KT 23/18 A3016 RMK A01 T02340176  RH  074%=      5-min Rain = 0
KARS 140800Z 08010KT 23/18 A3016 RMK A01 T02330176  RH  074%=      5-min Rain = 0
KARS 140805Z 08011KT 23/18 A3015 RMK A01 T02330176  RH  074%=      5-min Rain = 0
KARS 140810Z 08010KT 23/18 A3015 RMK A01 T02320176  RH  075%=      5-min Rain = 0
KARS 140815Z 08009KT 23/18 A3016 RMK A01 T02310176  RH  075%=      5-min Rain = 0
KARS 140820Z 09009G14KT 23/18 A3015 RMK A01 T02310176  RH  075%=      5-min Rain = 0
KARS 140825Z 08008KT 23/18 A3015 RMK A01 T02310175  RH  075%=      5-min Rain = 0
KARS 140830Z 08008KT 23/18 A3015 RMK A01 T02290175  RH  075%=      5-min Rain = 0
KARS 140835Z 08007KT 23/18 A3016 RMK A01 T02290175  RH  076%=      5-min Rain = 0
KARS 140840Z 09006KT 23/18 A3016 RMK A01 T02280175  RH  076%=      5-min Rain = 0
KARS 140845Z 10006KT 23/18 A3016 RMK A01 T02260175  RH  077%=      5-min Rain = 0
KARS 140850Z 10006KT 22/18 A3016 RMK A01 T02240176  RH  078%=      5-min Rain = 0
KARS 140855Z 09007KT 22/18 A3016 RMK A01 T02230176  RH  079%=      5-min Rain = 0
KARS 140900Z 08007KT 22/18 A3016 RMK A01 T02230175  RH  078%=      5-min Rain = 0
KARS 140905Z 08008KT 22/18 A3016 RMK A01 T02230175  RH  078%=      5-min Rain = 0
KARS 140910Z 08009KT 22/18 A3016 RMK A01 T02230175  RH  078%=      5-min Rain = 0
KARS 140915Z 09008KT 22/18 A3016 RMK A01 T02230175  RH  078%=      5-min Rain = 0
KARS 140920Z 08008KT 22/17 A3016 RMK A01 T02220174  RH  078%=      5-min Rain = 0
KARS 140925Z 07006KT 22/17 A3016 RMK A01 T02210173  RH  078%=      5-min Rain = 0
KARS 140930Z 07006KT 22/17 A3016 RMK A01 T02180173  RH  080%=      5-min Rain = 0
KARS 140935Z 07006KT 22/17 A3016 RMK A01 T02170173  RH  080%=      5-min Rain = 0
KARS 140940Z 06009KT 22/17 A3017 RMK A01 T02170173  RH  080%=      5-min Rain = 0
KARS 140945Z 05012KT 22/17 A3017 RMK A01 T02200172  RH  078%=      5-min Rain = 0
KARS 140950Z 05012KT 22/17 A3017 RMK A01 T02220172  RH  077%=      5-min Rain = 0
KARS 140955Z 06012G17KT 22/17 A3017 RMK A01 T02220173  RH  078%=      5-min Rain = 0
KARS 141000Z 05011KT 22/17 A3017 RMK A01 T02210174  RH  078%=      5-min Rain = 0
KARS 141005Z 05012KT 22/17 A3018 RMK A01 T02200173  RH  079%=      5-min Rain = 0
KARS 141010Z 05012KT 22/17 A3018 RMK A01 T02200173  RH  079%=      5-min Rain = 0
KARS 141015Z 05010KT 22/17 A3018 RMK A01 T02180172  RH  079%=      5-min Rain = 0
KARS 141020Z 04012KT 22/17 A3018 RMK A01 T02160172  RH  080%=      5-min Rain = 0
KARS 141025Z 04013G18KT 22/17 A3019 RMK A01 T02160171  RH  079%=      5-min Rain = 0
KARS 141030Z 04016G24KT 22/17 A3019 RMK A01 T02150168  RH  078%=      5-min Rain = 0
KARS 141035Z 04016KT 21/17 A3019 RMK A01 T02140166  RH  078%=      5-min Rain = 0
KARS 141040Z 05016KT 21/16 A3019 RMK A01 T02120162  RH  077%=      5-min Rain = 0
KARS 141045Z 04015G20KT 21/16 A302 RMK A01 T02110160  RH  076%=      5-min Rain = 0
KARS 141050Z 05014G19KT 21/16 A3019 RMK A01 T02100160  RH  077%=      5-min Rain = 0
KARS 141055Z 05014G20KT 21/16 A3019 RMK A01 T02090156  RH  075%=      5-min Rain = 0
KARS 141100Z 05012G17KT 21/15 A302 RMK A01 T02090154  RH  074%=      5-min Rain = 0
KARS 141105Z 04011KT 21/16 A302 RMK A01 T02080155  RH  075%=      5-min Rain = 0
KARS 141110Z 03012KT 21/16 A302 RMK A01 T02060156  RH  077%=      5-min Rain = 0
KARS 141115Z 04010KT 20/15 A302 RMK A01 T02040153  RH  076%=      5-min Rain = 0
KARS 141120Z 04011KT 20/15 A302 RMK A01 T02010150  RH  075%=      5-min Rain = 0
KARS 141125Z 04011KT 20/15 A302 RMK A01 T02000147  RH  075%=      5-min Rain = 0
KARS 141130Z 04012G18KT 20/15 A3021 RMK A01 T01990146  RH  074%=      5-min Rain = 0
KARS 141135Z 04013KT 20/14 A3021 RMK A01 T01990144  RH  074%=      5-min Rain = 0
KARS 141140Z 04012KT 20/14 A3022 RMK A01 T01980143  RH  074%=      5-min Rain = 0
KARS 141145Z 04012KT 20/14 A3021 RMK A01 T01960142  RH  074%=      5-min Rain = 0
KARS 141150Z 04012KT 20/14 A3022 RMK A01 T01950141  RH  074%=      5-min Rain = 0
KARS 141155Z 04011KT 19/14 A3022 RMK A01 T01940140  RH  074%=      5-min Rain = 0
KARS 141200Z 04013KT 19/14 A3022 RMK A01 T01930140  RH  074%=      5-min Rain = 0
KARS 141205Z 04011KT 19/14 A3023 RMK A01 T01930139  RH  074%=      5-min Rain = 0
KARS 141210Z 04011KT 19/14 A3023 RMK A01 T01920139  RH  074%=      5-min Rain = 0
KARS 141215Z 03012G18KT 19/14 A3024 RMK A01 T01920139  RH  075%=      5-min Rain = 0
KARS 141220Z 03012KT 19/14 A3023 RMK A01 T01930140  RH  074%=      5-min Rain = 0
KARS 141225Z 03012G17KT 19/14 A3023 RMK A01 T01920139  RH  075%=      5-min Rain = 0
KARS 141230Z 03013KT 19/14 A3024 RMK A01 T01930140  RH  075%=      5-min Rain = 0
KARS 141235Z 03012KT 19/14 A3024 RMK A01 T01930140  RH  075%=      5-min Rain = 0
KARS 141240Z 04011KT 19/14 A3024 RMK A01 T01940141  RH  075%=      5-min Rain = 0
KARS 141245Z 04011KT 19/14 A3024 RMK A01 T01940141  RH  075%=      5-min Rain = 0
KARS 141250Z 04011KT 19/14 A3024 RMK A01 T01940142  RH  075%=      5-min Rain = 0
KARS 141255Z 04009KT 19/14 A3024 RMK A01 T01940142  RH  075%=      5-min Rain = 0
KARS 141300Z 05009KT 20/14 A3024 RMK A01 T01960143  RH  075%=      5-min Rain = 0
KARS 141305Z 05008KT 20/15 A3025 RMK A01 T01980145  RH  074%=      5-min Rain = 0
KARS 141310Z 04008KT 20/15 A3025 RMK A01 T02010145  RH  074%=      5-min Rain = 0
KARS 141315Z 04009G14KT 20/15 A3025 RMK A01 T02040147  RH  073%=      5-min Rain = 0
KARS 141320Z 03010KT 21/15 A3026 RMK A01 T02070147  RH  071%=      5-min Rain = 0
KARS 141325Z 03009G15KT 21/15 A3026 RMK A01 T02070147  RH  071%=      5-min Rain = 0
KARS 141330Z 04007KT 21/15 A3026 RMK A01 T02090147  RH  071%=      5-min Rain = 0
KARS 141335Z 05008G13KT 21/15 A3026 RMK A01 T02090146  RH  070%=      5-min Rain = 0
KARS 141340Z 04007KT 21/15 A3026 RMK A01 T02080146  RH  071%=      5-min Rain = 0
KARS 141345Z 04007KT 21/15 A3026 RMK A01 T02120148  RH  070%=      5-min Rain = 0
KARS 141350Z 04006KT 22/15 A3026 RMK A01 T02170150  RH  069%=      5-min Rain = 0
KARS 141355Z 02009KT 22/15 A3027 RMK A01 T02190149  RH  067%=      5-min Rain = 0
KARS 141400Z 02010G15KT 22/15 A3027 RMK A01 T02210150  RH  067%=      5-min Rain = 0
KARS 141405Z 02010KT 22/15 A3027 RMK A01 T02210148  RH  066%=      5-min Rain = 0
KARS 141410Z 02010KT 22/15 A3027 RMK A01 T02220149  RH  066%=      5-min Rain = 0
KARS 141415Z 02009KT 22/15 A3027 RMK A01 T02240150  RH  066%=      5-min Rain = 0
KARS 141420Z 01012KT 23/15 A3027 RMK A01 T02270150  RH  064%=      5-min Rain = 0
KARS 141425Z 01014KT 23/15 A3027 RMK A01 T02280149  RH  064%=      5-min Rain = 0
KARS 141430Z 01014KT 23/15 A3027 RMK A01 T02320151  RH  063%=      5-min Rain = 0
KARS 141435Z 01015KT 23/15 A3028 RMK A01 T02310149  RH  063%=      5-min Rain = 0
KARS 141440Z 01014KT 23/15 A3028 RMK A01 T02330150  RH  062%=      5-min Rain = 0
KARS 141445Z 02012KT 24/15 A3028 RMK A01 T02350151  RH  062%=      5-min Rain = 0
KARS 141450Z 01012KT 24/15 A3028 RMK A01 T02400154  RH  061%=      5-min Rain = 0
KARS 141455Z 02011KT 24/15 A3027 RMK A01 T02430153  RH  060%=      5-min Rain = 0
KARS 141500Z 02011KT 24/15 A3027 RMK A01 T02440154  RH  060%=      5-min Rain = 0
KARS 141505Z 02011KT 25/16 A3027 RMK A01 T02480156  RH  059%=      5-min Rain = 0
KARS 141510Z 03012KT 25/16 A3026 RMK A01 T02500155  RH  058%=      5-min Rain = 0
KARS 141515Z 03012KT 25/16 A3026 RMK A01 T02520157  RH  058%=      5-min Rain = 0
KARS 141520Z 03010KT 26/16 A3026 RMK A01 T02570158  RH  057%=      5-min Rain = 0
KARS 141525Z 03010KT 26/16 A3026 RMK A01 T02590160  RH  057%=      5-min Rain = 0
KARS 141530Z 03009KT 26/16 A3026 RMK A01 T02610158  RH  055%=      5-min Rain = 0
KARS 141535Z 06007KT 26/16 A3025 RMK A01 T02620159  RH  056%=      5-min Rain = 0
KARS 141540Z 06007KT 26/16 A3025 RMK A01 T02620160  RH  056%=      5-min Rain = 0
KARS 141545Z 05007KT 26/16 A3025 RMK A01 T02610158  RH  056%=      5-min Rain = 0
KARS 141550Z 06006KT 26/16 A3025 RMK A01 T02630159  RH  055%=      5-min Rain = 0
KARS 141555Z 05006KT 27/16 A3025 RMK A01 T02670159  RH  054%=      5-min Rain = 0
KARS 141600Z 06007KT 27/16 A3025 RMK A01 T02690159  RH  053%=      5-min Rain = 0
KARS 141605Z 05006KT 27/16 A3025 RMK A01 T02720160  RH  053%=      5-min Rain = 0
KARS 141610Z 06007KT 27/16 A3025 RMK A01 T02740158  RH  052%=      5-min Rain = 0
KARS 141615Z 06008KT 27/16 A3024 RMK A01 T02710156  RH  052%=      5-min Rain = 0
KARS 141620Z 08008G14KT 28/16 A3023 RMK A01 T02760156  RH  050%=      5-min Rain = 0
KARS 141625Z 08010KT 28/15 A3022 RMK A01 T02790148  RH  047%=      5-min Rain = 0
KARS 141630Z 09010KT 28/15 A3022 RMK A01 T02800152  RH  048%=      5-min Rain = 0
KARS 141635Z 10010KT 28/15 A3021 RMK A01 T02840147  RH  045%=      5-min Rain = 0
KARS 141640Z 11011KT 29/15 A3021 RMK A01 T02880148  RH  044%=      5-min Rain = 0
KARS 141645Z 10010KT 29/15 A302 RMK A01 T02870147  RH  045%=      5-min Rain = 0
KARS 141650Z 10012KT 29/14 A3021 RMK A01 T02860140  RH  043%=      5-min Rain = 0
KARS 141655Z 10012KT 29/15 A302 RMK A01 T02870145  RH  044%=      5-min Rain = 0
KARS 141700Z 10014KT 29/14 A302 RMK A01 T02910142  RH  042%=      5-min Rain = 0
KARS 141705Z 10013KT 29/14 A3019 RMK A01 T02920144  RH  042%=      5-min Rain = 0
KARS 141710Z 10014G19KT 30/15 A3019 RMK A01 T02960146  RH  042%=      5-min Rain = 0
KARS 141715Z 09014KT 30/14 A302 RMK A01 T02960138  RH  039%=      5-min Rain = 0
KARS 141720Z 09013KT 30/14 A3021 RMK A01 T02970140  RH  040%=      5-min Rain = 0
KARS 141725Z 09012G18KT 30/13 A3021 RMK A01 T02970132  RH  038%=      5-min Rain = 0
KARS 141730Z 08009KT 30/14 A3022 RMK A01 T03000139  RH  039%=      5-min Rain = 0
KARS 141735Z 08009KT 30/14 A3022 RMK A01 T03030141  RH  039%=      5-min Rain = 0
KARS 141740Z 10010KT 30/14 A3021 RMK A01 T03020136  RH  038%=      5-min Rain = 0
KARS 141745Z 09011G16KT 30/13 A3022 RMK A01 T03020131  RH  037%=      5-min Rain = 0
KARS 141750Z 09009KT 31/13 A3021 RMK A01 T03080131  RH  036%=      5-min Rain = 0
KARS 141755Z 07010KT 31/13 A3021 RMK A01 T03070130  RH  035%=      5-min Rain = 0
KARS 141800Z 10008G13KT 31/13 A3021 RMK A01 T03070129  RH  035%=      5-min Rain = 0
KARS 141805Z 09009G14KT 31/13 A3021 RMK A01 T03080130  RH  035%=      5-min Rain = 0
KARS 141810Z 08008G13KT 31/13 A3021 RMK A01 T03110129  RH  034%=      5-min Rain = 0
KARS 141815Z 07010G15KT 31/13 A302 RMK A01 T03110131  RH  035%=      5-min Rain = 0
KARS 141820Z 08010KT 31/13 A3021 RMK A01 T03110132  RH  035%=      5-min Rain = 0
KARS 141825Z 07008G13KT 31/13 A3021 RMK A01 T03120133  RH  035%=      5-min Rain = 0
KARS 141830Z 06011KT 31/14 A3021 RMK A01 T03140139  RH  036%=      5-min Rain = 0
KARS 141835Z 06011G17KT 31/13 A3021 RMK A01 T03130134  RH  035%=      5-min Rain = 0
KARS 141840Z 06011KT 31/13 A3021 RMK A01 T03110127  RH  034%=      5-min Rain = 0
KARS 141845Z 05010KT 31/13 A3021 RMK A01 T03110130  RH  035%=      5-min Rain = 0
KARS 141850Z 04010KT 31/14 A302 RMK A01 T03110140  RH  037%=      5-min Rain = 0
KARS 141855Z 04007G13KT 31/13 A302 RMK A01 T03110133  RH  035%=      5-min Rain = 0
KARS 141900Z 04010G15KT 32/13 A302 RMK A01 T03150133  RH  034%=      5-min Rain = 0
KARS 141905Z 05007G13KT 32/13 A302 RMK A01 T03150134  RH  034%=      5-min Rain = 0
KARS 141910Z 06004KT 32/13 A302 RMK A01 T03170129  RH  033%=      5-min Rain = 0
KARS 141915Z 05011G16KT 32/13 A302 RMK A01 T03200131  RH  033%=      5-min Rain = 0
KARS 141920Z 03011KT 32/13 A302 RMK A01 T03170129  RH  033%=      5-min Rain = 0
KARS 141925Z 05008G15KT 32/13 A302 RMK A01 T03190127  RH  032%=      5-min Rain = 0
KARS 141930Z 07009G15KT 32/12 A3019 RMK A01 T03200123  RH  031%=      5-min Rain = 0
KARS 141935Z 09009KT 32/12 A3019 RMK A01 T03240124  RH  031%=      5-min Rain = 0
KARS 141940Z 06009G14KT 33/13 A3019 RMK A01 T03250134  RH  033%=      5-min Rain = 0
KARS 141945Z 06010KT 32/13 A3018 RMK A01 T03200132  RH  033%=      5-min Rain = 0
KARS 141950Z 06011KT 32/13 A3018 RMK A01 T03200129  RH  033%=      5-min Rain = 0
KARS 141955Z 07008KT 32/12 A3018 RMK A01 T03210123  RH  031%=      5-min Rain = 0
KARS 142000Z 09008KT 32/12 A3018 RMK A01 T03230117  RH  029%=      5-min Rain = 0
KARS 142005Z 09008KT 33/12 A3017 RMK A01 T03250116  RH  029%=      5-min Rain = 0
KARS 142010Z 10006KT 32/12 A3017 RMK A01 T03220117  RH  030%=      5-min Rain = 0
KARS 142015Z 07007KT 33/12 A3017 RMK A01 T03250116  RH  029%=      5-min Rain = 0
KARS 142020Z 07006KT 33/11 A3016 RMK A01 T03250113  RH  028%=      5-min Rain = 0
KARS 142025Z 07005KT 32/12 A3016 RMK A01 T03240115  RH  029%=      5-min Rain = 0
KARS 142030Z 10004KT 33/11 A3015 RMK A01 T03250109  RH  028%=      5-min Rain = 0
KARS 142035Z 13005KT 32/11 A3015 RMK A01 T03240109  RH  028%=      5-min Rain = 0
KARS 142040Z 09005KT 32/11 A3015 RMK A01 T03230111  RH  028%=      5-min Rain = 0
KARS 142045Z 13005KT 33/11 A3015 RMK A01 T03280113  RH  028%=      5-min Rain = 0
KARS 142050Z 15006KT 33/12 A3014 RMK A01 T03300115  RH  028%=      5-min Rain = 0
KARS 142055Z 13003KT 33/11 A3014 RMK A01 T03280113  RH  028%=      5-min Rain = 0
KARS 142100Z 10007KT 33/11 A3014 RMK A01 T03290112  RH  027%=      5-min Rain = 0
KARS 142105Z 14005KT 33/11 A3013 RMK A01 T03260108  RH  027%=      5-min Rain = 0
KARS 142110Z 12005KT 33/11 A3013 RMK A01 T03280108  RH  027%=      5-min Rain = 0
KARS 142115Z 10002G7KT 33/10 A3013 RMK A01 T03260104  RH  027%=      5-min Rain = 0
KARS 142120Z 13003KT 33/11 A3013 RMK A01 T03300107  RH  026%=      5-min Rain = 0
KARS 142125Z 15004KT 33/11 A3012 RMK A01 T03340107  RH  026%=      5-min Rain = 0
KARS 142130Z 15005KT 34/10 A3012 RMK A01 T03350104  RH  025%=      5-min Rain = 0
KARS 142135Z 15004KT 33/11 A3012 RMK A01 T03340105  RH  025%=      5-min Rain = 0
KARS 142140Z 14004KT 33/11 A3012 RMK A01 T03340105  RH  025%=      5-min Rain = 0
KARS 142145Z 08004KT 33/11 A3012 RMK A01 T03310109  RH  027%=      5-min Rain = 0
KARS 142150Z 11002KT 34/11 A3012 RMK A01 T03350109  RH  026%=      5-min Rain = 0
KARS 142155Z 10005KT 34/11 A3012 RMK A01 T03350110  RH  026%=      5-min Rain = 0
KARS 142200Z 06003G9KT 33/11 A3012 RMK A01 T03320109  RH  026%=      5-min Rain = 0
KARS 142205Z 13004KT 34/11 A3012 RMK A01 T03350112  RH  027%=      5-min Rain = 0
KARS 142210Z 12005KT 34/12 A3012 RMK A01 T03370118  RH  027%=      5-min Rain = 0
KARS 142215Z 10006KT 34/11 A3012 RMK A01 T03350114  RH  027%=      5-min Rain = 0
KARS 142220Z 10005KT 33/11 A3012 RMK A01 T03340112  RH  027%=      5-min Rain = 0
KARS 142225Z 14005KT 34/11 A3011 RMK A01 T03350114  RH  027%=      5-min Rain = 0
KARS 142230Z 12005KT 33/11 A3011 RMK A01 T03340113  RH  027%=      5-min Rain = 0
KARS 142235Z 11007KT 34/12 A3011 RMK A01 T03360120  RH  028%=      5-min Rain = 0
KARS 142240Z 12005KT 33/11 A3011 RMK A01 T03330112  RH  027%=      5-min Rain = 0
KARS 142245Z 14005KT 34/11 A3011 RMK A01 T03360114  RH  027%=      5-min Rain = 0
KARS 142250Z 14006KT 34/12 A3011 RMK A01 T03360115  RH  027%=      5-min Rain = 0
KARS 142255Z 12004KT 34/11 A3011 RMK A01 T03360114  RH  027%=      5-min Rain = 0
KARS 142300Z 13005KT 34/12 A3011 RMK A01 T03350115  RH  027%=      5-min Rain = 0
KARS 142305Z 09006KT 33/12 A3011 RMK A01 T03330121  RH  029%=      5-min Rain = 0
KARS 142310Z 04005KT 33/11 A3011 RMK A01 T03320113  RH  027%=      5-min Rain = 0
KARS 142315Z 08003G8KT 33/11 A3011 RMK A01 T03320114  RH  027%=      5-min Rain = 0
KARS 142320Z 09007KT 33/11 A3011 RMK A01 T03330114  RH  027%=      5-min Rain = 0
KARS 142325Z 10007KT 33/11 A3011 RMK A01 T03330110  RH  026%=      5-min Rain = 0
KARS 142330Z 08003KT 33/11 A3011 RMK A01 T03320106  RH  026%=      5-min Rain = 0
KARS 142335Z 08004KT 33/11 A3011 RMK A01 T03320110  RH  027%=      5-min Rain = 0
KARS 142340Z 09009KT 33/12 A301 RMK A01 T03320116  RH  028%=      5-min Rain = 0
KARS 142345Z 10008KT 33/12 A3011 RMK A01 T03290117  RH  028%=      5-min Rain = 0
KARS 142350Z 11006KT 33/12 A301 RMK A01 T03280116  RH  029%=      5-min Rain = 0
KARS 142355Z 11006KT 33/12 A301 RMK A01 T03280119  RH  029%=      5-min Rain = 0
KARS 150000Z 11005KT 33/12 A301 RMK A01 T03270115  RH  028%=      5-min Rain = 0
KARS 150005Z 11005KT 33/12 A301 RMK A01 T03270117  RH  029%=      5-min Rain = 0
KARS 150010Z 12005KT 33/12 A3011 RMK A01 T03250124  RH  031%=      5-min Rain = 0
KARS 150015Z 11005KT 32/13 A301 RMK A01 T03230127  RH  031%=      5-min Rain = 0
KARS 150020Z 10004KT 32/13 A301 RMK A01 T03220129  RH  032%=      5-min Rain = 0
KARS 150025Z 11004KT 32/14 A301 RMK A01 T03210136  RH  034%=      5-min Rain = 0
KARS 150030Z 12005KT 32/13 A3011 RMK A01 T03200130  RH  033%=      5-min Rain = 0
KARS 150035Z 12005KT 32/13 A3011 RMK A01 T03180131  RH  033%=      5-min Rain = 0
KARS 150040Z 11004KT 32/13 A3011 RMK A01 T03160131  RH  034%=      5-min Rain = 0
KARS 150045Z 12004KT 31/15 A3011 RMK A01 T03110145  RH  038%=      5-min Rain = 0
KARS 150050Z 11004KT 31/15 A3011 RMK A01 T03090145  RH  039%=      5-min Rain = 0
KARS 150055Z 11004KT 31/14 A3011 RMK A01 T03080141  RH  038%=      5-min Rain = 0
KARS 150100Z 11003KT 31/14 A3011 RMK A01 T03070141  RH  038%=      5-min Rain = 0
KARS 150105Z 10004KT 30/15 A3011 RMK A01 T03040146  RH  040%=      5-min Rain = 0
KARS 150110Z 10004KT 30/15 A3012 RMK A01 T02990151  RH  042%=      5-min Rain = 0
KARS 150115Z 10004KT 30/15 A3012 RMK A01 T02950148  RH  043%=      5-min Rain = 0
KARS 150120Z 10005KT 29/15 A3012 RMK A01 T02920151  RH  044%=      5-min Rain = 0
KARS 150125Z 10005KT 29/15 A3012 RMK A01 T02890150  RH  045%=      5-min Rain = 0
KARS 150130Z 10006KT 29/15 A3012 RMK A01 T02860148  RH  045%=      5-min Rain = 0
KARS 150135Z 10007KT 29/14 A3012 RMK A01 T02850144  RH  044%=      5-min Rain = 0
KARS 150140Z 10007KT 28/14 A3013 RMK A01 T02840143  RH  044%=      5-min Rain = 0
KARS 150145Z 09007KT 28/14 A3013 RMK A01 T02800143  RH  045%=      5-min Rain = 0
KARS 150150Z 09007KT 28/14 A3013 RMK A01 T02790142  RH  045%=      5-min Rain = 0
KARS 150155Z 09007KT 28/14 A3013 RMK A01 T02800143  RH  045%=      5-min Rain = 0
KARS 150200Z 09007KT 28/14 A3014 RMK A01 T02810144  RH  045%=      5-min Rain = 0
KARS 150205Z 09007KT 28/14 A3014 RMK A01 T02810144  RH  045%=      5-min Rain = 0
KARS 150210Z 09007KT 28/15 A3014 RMK A01 T02800145  RH  045%=      5-min Rain = 0
KARS 150215Z 09007KT 28/14 A3014 RMK A01 T02790144  RH  046%=      5-min Rain = 0
KARS 150220Z 10007KT 28/15 A3015 RMK A01 T02770145  RH  046%=      5-min Rain = 0
KARS 150225Z 10007KT 27/15 A3015 RMK A01 T02730148  RH  048%=      5-min Rain = 0
KARS 150230Z 10007KT 27/15 A3015 RMK A01 T02700149  RH  050%=      5-min Rain = 0
KARS 150235Z 10007KT 27/15 A3015 RMK A01 T02690148  RH  050%=      5-min Rain = 0
KARS 150240Z 11007KT 27/15 A3015 RMK A01 T02680149  RH  050%=      5-min Rain = 0
KARS 150245Z 11007KT 27/15 A3015 RMK A01 T02650150  RH  051%=      5-min Rain = 0
KARS 150250Z 10007KT 26/15 A3015 RMK A01 T02620150  RH  052%=      5-min Rain = 0
KARS 150255Z 11007KT 26/15 A3015 RMK A01 T02600150  RH  053%=      5-min Rain = 0
KARS 150300Z 10007KT 26/15 A3015 RMK A01 T02600149  RH  053%=      5-min Rain = 0
KARS 150305Z 10007KT 26/15 A3016 RMK A01 T02610149  RH  052%=      5-min Rain = 0
KARS 150310Z 10008KT 26/15 A3016 RMK A01 T02600150  RH  053%=      5-min Rain = 0
KARS 150315Z 10007KT 26/15 A3016 RMK A01 T02580150  RH  054%=      5-min Rain = 0
KARS 150320Z 10007KT 26/15 A3016 RMK A01 T02550151  RH  055%=      5-min Rain = 0
KARS 150325Z 10007KT 25/15 A3017 RMK A01 T02540151  RH  055%=      5-min Rain = 0
KARS 150330Z 10007KT 25/15 A3017 RMK A01 T02530151  RH  056%=      5-min Rain = 0
KARS 150335Z 10007KT 25/15 A3017 RMK A01 T02510152  RH  056%=      5-min Rain = 0
KARS 150340Z 10007KT 25/15 A3017 RMK A01 T02500152  RH  057%=      5-min Rain = 0
KARS 150345Z 10007KT 25/15 A3017 RMK A01 T02490152  RH  057%=      5-min Rain = 0
KARS 150350Z 10007KT 25/15 A3017 RMK A01 T02480152  RH  058%=      5-min Rain = 0
KARS 150355Z 10007KT 25/15 A3018 RMK A01 T02470153  RH  058%=      5-min Rain = 0
KARS 150400Z 10007KT 25/15 A3018 RMK A01 T02470152  RH  058%=      5-min Rain = 0
KARS 150405Z 11007KT 25/15 A3018 RMK A01 T02460152  RH  059%=      5-min Rain = 0
KARS 150410Z 10007KT 25/15 A3018 RMK A01 T02450151  RH  058%=      5-min Rain = 0
KARS 150415Z 11007KT 25/15 A3018 RMK A01 T02460151  RH  058%=      5-min Rain = 0
KARS 150420Z 11007KT 25/15 A3018 RMK A01 T02460150  RH  058%=      5-min Rain = 0
KARS 150425Z 11006KT 25/15 A3018 RMK A01 T02460150  RH  058%=      5-min Rain = 0
KARS 150430Z 12006KT 25/15 A3018 RMK A01 T02470150  RH  057%=      5-min Rain = 0
KARS 150435Z 11006KT 25/15 A3018 RMK A01 T02480151  RH  057%=      5-min Rain = 0
KARS 150440Z 10006KT 25/15 A3018 RMK A01 T02460151  RH  058%=      5-min Rain = 0
KARS 150445Z 10006KT 24/15 A3018 RMK A01 T02440151  RH  059%=      5-min Rain = 0
KARS 150450Z 10006KT 24/15 A3018 RMK A01 T02430152  RH  059%=      5-min Rain = 0
KARS 150455Z 10006KT 24/15 A3018 RMK A01 T02410153  RH  061%=      5-min Rain = 0

Page generated in 0.0093 seconds.